Terminal Aerodrome Forecast
Issued by NWS Shreveport, LA

Home | Current Version | Previous Version | Text Only | Print | Product List | Glossary On
Versions: 1 2 3 4 5 6 7 8 9 10 11 12 13 14 15
000
FTUS44 KSHV 280521
TAFLFK
TAF
KLFK 280521Z 2806/2906 16004KT P6SM SKC
     FM281200 VRB03KT P6SM SCT012
      TEMPO 2812/2814 BKN012
     FM281400 22005KT P6SM FEW015
     FM281600 22005KT P6SM SKC
     FM290000 15006KT P6SM SKC=

USA.gov is the U.S. government's official web portal to all federal, state and local government web resources and services.